sensor_id;sensor_type;location;lat;lon;timestamp;pressure;altitude;pressure_sealevel;temperature;humidity
21185;BME280;18176;49.502;11.754;2023-07-13T00:02:13;96766.69;;;24.64;55.69
21185;BME280;18176;49.502;11.754;2023-07-13T00:06:15;96766.34;;;24.74;55.64
21185;BME280;18176;49.502;11.754;2023-07-13T00:10:18;96777.06;;;24.62;56.32
21185;BME280;18176;49.502;11.754;2023-07-13T00:14:18;96773.44;;;24.40;57.62
21185;BME280;18176;49.502;11.754;2023-07-13T00:18:19;96735.72;;;24.35;57.44
21185;BME280;18176;49.502;11.754;2023-07-13T00:22:22;96759.88;;;24.40;58.31
21185;BME280;18176;49.502;11.754;2023-07-13T00:26:23;96759.88;;;24.40;59.00
21185;BME280;18176;49.502;11.754;2023-07-13T00:30:24;96777.91;;;24.36;59.66
21185;BME280;18176;49.502;11.754;2023-07-13T00:34:24;96767.44;;;24.09;60.82
21185;BME280;18176;49.502;11.754;2023-07-13T00:38:27;96772.19;;;24.21;60.93
21185;BME280;18176;49.502;11.754;2023-07-13T00:42:27;96777.44;;;24.00;61.70
21185;BME280;18176;49.502;11.754;2023-07-13T00:46:29;96770.94;;;24.18;61.03
21185;BME280;18176;49.502;11.754;2023-07-13T00:50:35;96745.75;;;23.92;61.12
21185;BME280;18176;49.502;11.754;2023-07-13T00:54:43;96746.56;;;23.93;61.19
21185;BME280;18176;49.502;11.754;2023-07-13T00:58:46;96741.94;;;23.93;60.90
21185;BME280;18176;49.502;11.754;2023-07-13T01:02:48;96738.75;;;23.74;60.83
21185;BME280;18176;49.502;11.754;2023-07-13T01:06:50;96763.91;;;23.83;61.12
21185;BME280;18176;49.502;11.754;2023-07-13T01:10:55;96759.47;;;23.87;60.17
21185;BME280;18176;49.502;11.754;2023-07-13T01:14:58;96730.00;;;23.51;60.08
21185;BME280;18176;49.502;11.754;2023-07-13T01:18:59;96762.78;;;23.50;60.54
21185;BME280;18176;49.502;11.754;2023-07-13T01:23:04;96759.13;;;23.63;59.80
21185;BME280;18176;49.502;11.754;2023-07-13T01:27:07;96751.16;;;23.58;59.54
21185;BME280;18176;49.502;11.754;2023-07-13T01:31:11;96763.25;;;23.52;59.53
21185;BME280;18176;49.502;11.754;2023-07-13T01:35:11;96762.94;;;23.53;58.73
21185;BME280;18176;49.502;11.754;2023-07-13T01:39:16;96726.44;;;23.34;57.90
21185;BME280;18176;49.502;11.754;2023-07-13T01:43:18;96700.19;;;23.26;57.79
21185;BME280;18176;49.502;11.754;2023-07-13T01:47:18;96753.84;;;23.41;57.71
21185;BME280;18176;49.502;11.754;2023-07-13T01:51:20;96727.53;;;23.16;57.58
21185;BME280;18176;49.502;11.754;2023-07-13T01:55:23;96747.56;;;23.15;57.00
21185;BME280;18176;49.502;11.754;2023-07-13T01:59:23;96757.38;;;23.41;56.41
21185;BME280;18176;49.502;11.754;2023-07-13T02:03:23;96742.19;;;23.32;56.25
21185;BME280;18176;49.502;11.754;2023-07-13T02:07:24;96749.78;;;23.13;56.50
21185;BME280;18176;49.502;11.754;2023-07-13T02:11:27;96756.13;;;23.17;56.51
21185;BME280;18176;49.502;11.754;2023-07-13T02:15:30;96744.00;;;22.88;56.81
21185;BME280;18176;49.502;11.754;2023-07-13T02:19:30;96732.63;;;22.69;56.68
21185;BME280;18176;49.502;11.754;2023-07-13T02:23:30;96703.94;;;22.51;56.44
21185;BME280;18176;49.502;11.754;2023-07-13T02:27:33;96744.72;;;22.72;56.51
21185;BME280;18176;49.502;11.754;2023-07-13T02:31:33;96743.66;;;22.81;56.10
21185;BME280;18176;49.502;11.754;2023-07-13T02:35:34;96747.34;;;22.63;56.53
21185;BME280;18176;49.502;11.754;2023-07-13T02:39:34;96736.50;;;22.55;56.42
21185;BME280;18176;49.502;11.754;2023-07-13T02:43:37;96745.41;;;22.55;56.50
21185;BME280;18176;49.502;11.754;2023-07-13T02:47:41;96765.03;;;22.47;56.85
21185;BME280;18176;49.502;11.754;2023-07-13T02:51:41;96766.97;;;22.24;57.25
21185;BME280;18176;49.502;11.754;2023-07-13T02:55:41;96732.44;;;22.13;57.40
21185;BME280;18176;49.502;11.754;2023-07-13T02:59:47;96764.00;;;22.26;58.54
21185;BME280;18176;49.502;11.754;2023-07-13T03:03:47;96752.69;;;22.02;58.20
21185;BME280;18176;49.502;11.754;2023-07-13T03:07:49;96769.75;;;22.11;58.37
21185;BME280;18176;49.502;11.754;2023-07-13T03:11:53;96781.50;;;21.93;58.25
21185;BME280;18176;49.502;11.754;2023-07-13T03:16:01;96776.59;;;21.95;59.26
21185;BME280;18176;49.502;11.754;2023-07-13T03:20:01;96779.31;;;21.95;59.13
21185;BME280;18176;49.502;11.754;2023-07-13T03:24:02;96784.28;;;21.65;59.67
21185;BME280;18176;49.502;11.754;2023-07-13T03:28:02;96765.88;;;21.67;59.28
21185;BME280;18176;49.502;11.754;2023-07-13T03:32:07;96797.53;;;21.76;58.05
21185;BME280;18176;49.502;11.754;2023-07-13T03:36:13;96798.56;;;21.66;58.21
21185;BME280;18176;49.502;11.754;2023-07-13T03:40:16;96782.41;;;21.52;58.24
21185;BME280;18176;49.502;11.754;2023-07-13T03:44:18;96803.59;;;21.45;58.63
21185;BME280;18176;49.502;11.754;2023-07-13T03:48:25;96806.47;;;21.49;58.54
21185;BME280;18176;49.502;11.754;2023-07-13T03:52:26;96806.38;;;21.54;56.93
21185;BME280;18176;49.502;11.754;2023-07-13T03:56:26;96810.16;;;21.39;57.25
21185;BME280;18176;49.502;11.754;2023-07-13T04:00:27;96818.97;;;21.45;57.42
21185;BME280;18176;49.502;11.754;2023-07-13T04:04:30;96827.53;;;21.60;56.75
21185;BME280;18176;49.502;11.754;2023-07-13T04:08:33;96833.19;;;21.73;56.64
21185;BME280;18176;49.502;11.754;2023-07-13T04:12:35;96824.72;;;21.65;56.07
21185;BME280;18176;49.502;11.754;2023-07-13T04:16:35;96809.38;;;21.52;55.99
21185;BME280;18176;49.502;11.754;2023-07-13T04:20:38;96837.09;;;21.66;56.45
21185;BME280;18176;49.502;11.754;2023-07-13T04:24:39;96831.94;;;21.56;55.91
21185;BME280;18176;49.502;11.754;2023-07-13T04:28:39;96835.00;;;21.77;56.10
21185;BME280;18176;49.502;11.754;2023-07-13T04:32:39;96833.28;;;21.81;55.88
21185;BME280;18176;49.502;11.754;2023-07-13T04:36:42;96839.69;;;21.85;55.63
21185;BME280;18176;49.502;11.754;2023-07-13T04:40:44;96848.25;;;22.01;55.71
21185;BME280;18176;49.502;11.754;2023-07-13T04:44:48;96839.78;;;21.94;55.17
21185;BME280;18176;49.502;11.754;2023-07-13T04:48:50;96835.91;;;21.73;55.40
21185;BME280;18176;49.502;11.754;2023-07-13T04:52:54;96842.09;;;21.73;55.12
21185;BME280;18176;49.502;11.754;2023-07-13T04:56:54;96834.72;;;21.51;55.47
21185;BME280;18176;49.502;11.754;2023-07-13T05:01:00;96837.63;;;21.28;55.94
21185;BME280;18176;49.502;11.754;2023-07-13T05:05:01;96853.13;;;21.22;56.16
21185;BME280;18176;49.502;11.754;2023-07-13T05:09:03;96855.91;;;21.17;56.32
21185;BME280;18176;49.502;11.754;2023-07-13T05:13:04;96861.28;;;21.44;56.35
21185;BME280;18176;49.502;11.754;2023-07-13T05:17:05;96863.69;;;21.32;56.28
21185;BME280;18176;49.502;11.754;2023-07-13T05:21:08;96865.69;;;21.27;56.34
21185;BME280;18176;49.502;11.754;2023-07-13T05:25:13;96863.41;;;21.34;55.76
21185;BME280;18176;49.502;11.754;2023-07-13T05:29:13;96871.97;;;21.22;55.81
21185;BME280;18176;49.502;11.754;2023-07-13T05:33:13;96876.88;;;21.61;55.08
21185;BME280;18176;49.502;11.754;2023-07-13T05:37:14;96860.66;;;21.75;54.61
21185;BME280;18176;49.502;11.754;2023-07-13T05:41:16;96851.97;;;21.78;54.32
21185;BME280;18176;49.502;11.754;2023-07-13T05:45:17;96871.84;;;21.95;52.92
21185;BME280;18176;49.502;11.754;2023-07-13T05:49:17;96881.53;;;21.55;54.20
21185;BME280;18176;49.502;11.754;2023-07-13T05:53:17;96886.03;;;21.74;54.53
21185;BME280;18176;49.502;11.754;2023-07-13T05:57:20;96880.66;;;21.60;54.03
21185;BME280;18176;49.502;11.754;2023-07-13T06:01:20;96898.22;;;21.98;52.85
21185;BME280;18176;49.502;11.754;2023-07-13T06:05:21;96895.28;;;22.44;52.20
21185;BME280;18176;49.502;11.754;2023-07-13T06:09:21;96904.72;;;22.55;51.70
21185;BME280;18176;49.502;11.754;2023-07-13T06:13:24;96860.22;;;22.53;50.63
21185;BME280;18176;49.502;11.754;2023-07-13T06:17:24;96909.44;;;22.50;50.82
21185;BME280;18176;49.502;11.754;2023-07-13T06:21:25;96913.44;;;22.30;51.60
21185;BME280;18176;49.502;11.754;2023-07-13T06:25:26;96917.47;;;22.41;51.05
21185;BME280;18176;49.502;11.754;2023-07-13T06:29:29;96887.44;;;22.56;50.98
21185;BME280;18176;49.502;11.754;2023-07-13T06:33:29;96919.94;;;23.18;49.06
21185;BME280;18176;49.502;11.754;2023-07-13T06:37:30;96924.22;;;23.19;48.91
21185;BME280;18176;49.502;11.754;2023-07-13T06:41:30;96921.31;;;23.07;48.83
21185;BME280;18176;49.502;11.754;2023-07-13T06:45:42;96924.84;;;23.38;48.65
21185;BME280;18176;49.502;11.754;2023-07-13T06:49:43;96920.72;;;22.87;49.09
21185;BME280;18176;49.502;11.754;2023-07-13T06:53:43;96938.56;;;23.41;48.54
21185;BME280;18176;49.502;11.754;2023-07-13T06:57:43;96932.59;;;23.70;47.62
21185;BME280;18176;49.502;11.754;2023-07-13T07:01:46;96916.94;;;23.28;48.43
21185;BME280;18176;49.502;11.754;2023-07-13T07:05:46;96939.66;;;23.88;46.91
21185;BME280;18176;49.502;11.754;2023-07-13T07:09:46;96946.47;;;23.77;47.06
21185;BME280;18176;49.502;11.754;2023-07-13T07:13:47;96939.41;;;24.15;45.49
21185;BME280;18176;49.502;11.754;2023-07-13T07:17:50;96941.03;;;24.16;45.81
21185;BME280;18176;49.502;11.754;2023-07-13T07:21:50;96966.91;;;24.00;45.76
21185;BME280;18176;49.502;11.754;2023-07-13T07:25:50;96973.56;;;24.59;45.45
21185;BME280;18176;49.502;11.754;2023-07-13T07:29:51;96977.41;;;24.50;44.64
21185;BME280;18176;49.502;11.754;2023-07-13T07:34:13;96970.06;;;24.59;44.40
21185;BME280;18176;49.502;11.754;2023-07-13T07:38:14;96971.97;;;24.58;44.54
21185;BME280;18176;49.502;11.754;2023-07-13T07:42:15;96962.09;;;24.71;43.95
21185;BME280;18176;49.502;11.754;2023-07-13T07:46:27;96971.16;;;24.66;44.58
21185;BME280;18176;49.502;11.754;2023-07-13T07:50:37;96922.56;;;24.35;45.19
21185;BME280;18176;49.502;11.754;2023-07-13T07:54:42;96903.19;;;23.77;45.50
21185;BME280;18176;49.502;11.754;2023-07-13T07:58:57;97001.22;;;24.13;45.72
21185;BME280;18176;49.502;11.754;2023-07-13T08:03:07;96966.22;;;24.60;45.56
21185;BME280;18176;49.502;11.754;2023-07-13T08:07:14;96985.06;;;24.65;44.87
21185;BME280;18176;49.502;11.754;2023-07-13T08:11:14;97002.94;;;24.83;45.17
21185;BME280;18176;49.502;11.754;2023-07-13T08:15:18;96991.88;;;26.23;41.81
21185;BME280;18176;49.502;11.754;2023-07-13T08:19:19;96995.44;;;27.96;38.55
21185;BME280;18176;49.502;11.754;2023-07-13T08:23:23;96999.13;;;28.24;37.74
21185;BME280;18176;49.502;11.754;2023-07-13T08:27:24;96972.34;;;26.80;39.05
21185;BME280;18176;49.502;11.754;2023-07-13T08:31:25;97020.22;;;26.14;40.31
21185;BME280;18176;49.502;11.754;2023-07-13T08:35:25;96989.38;;;26.39;40.04
21185;BME280;18176;49.502;11.754;2023-07-13T08:39:29;97004.53;;;27.10;38.07
21185;BME280;18176;49.502;11.754;2023-07-13T08:43:35;96984.28;;;27.53;37.89
21185;BME280;18176;49.502;11.754;2023-07-13T08:47:39;97010.84;;;27.56;36.28
21185;BME280;18176;49.502;11.754;2023-07-13T08:51:44;97001.16;;;28.64;35.72
21185;BME280;18176;49.502;11.754;2023-07-13T08:55:57;97011.25;;;29.58;32.62
21185;BME280;18176;49.502;11.754;2023-07-13T08:59:58;97029.06;;;28.85;32.56
21185;BME280;18176;49.502;11.754;2023-07-13T09:04:05;97037.53;;;28.95;33.20
21185;BME280;18176;49.502;11.754;2023-07-13T09:08:48;97045.69;;;28.31;33.52
21185;BME280;18176;49.502;11.754;2023-07-13T09:13:06;97052.47;;;28.37;32.54
21185;BME280;18176;49.502;11.754;2023-07-13T09:17:18;97038.28;;;29.63;30.83
21185;BME280;18176;49.502;11.754;2023-07-13T09:21:31;97043.06;;;28.59;31.82
21185;BME280;18176;49.502;11.754;2023-07-13T09:25:34;97049.31;;;28.47;31.86
21185;BME280;18176;49.502;11.754;2023-07-13T09:29:44;97024.38;;;27.89;32.80
21185;BME280;18176;49.502;11.754;2023-07-13T09:33:46;97023.44;;;28.29;33.14
21185;BME280;18176;49.502;11.754;2023-07-13T09:37:49;97030.34;;;29.03;32.63
21185;BME280;18176;49.502;11.754;2023-07-13T09:41:57;97038.53;;;30.17;31.82
21185;BME280;18176;49.502;11.754;2023-07-13T09:46:02;97034.63;;;29.16;32.08
21185;BME280;18176;49.502;11.754;2023-07-13T09:50:10;97052.03;;;28.72;29.09
21185;BME280;18176;49.502;11.754;2023-07-13T09:54:24;97037.50;;;28.31;30.88
21185;BME280;18176;49.502;11.754;2023-07-13T09:58:29;97028.84;;;28.53;30.64
21185;BME280;18176;49.502;11.754;2023-07-13T10:02:35;97037.94;;;29.49;29.39
21185;BME280;18176;49.502;11.754;2023-07-13T10:06:36;97034.09;;;28.59;30.08
21185;BME280;18176;49.502;11.754;2023-07-13T10:10:38;97046.13;;;28.33;29.76
21185;BME280;18176;49.502;11.754;2023-07-13T10:14:39;97050.38;;;27.98;30.83
21185;BME280;18176;49.502;11.754;2023-07-13T10:18:48;97042.13;;;28.67;30.00
21185;BME280;18176;49.502;11.754;2023-07-13T10:22:54;97030.16;;;30.26;28.12
21185;BME280;18176;49.502;11.754;2023-07-13T10:27:05;97043.81;;;30.26;26.95
21185;BME280;18176;49.502;11.754;2023-07-13T10:31:16;97053.50;;;29.76;28.27
21185;BME280;18176;49.502;11.754;2023-07-13T10:35:22;97046.03;;;30.86;27.49
21185;BME280;18176;49.502;11.754;2023-07-13T10:39:27;97050.81;;;30.89;25.56
21185;BME280;18176;49.502;11.754;2023-07-13T10:43:33;97033.84;;;31.38;24.46
21185;BME280;18176;49.502;11.754;2023-07-13T10:47:37;97041.44;;;32.84;22.95
21185;BME280;18176;49.502;11.754;2023-07-13T10:51:41;97031.22;;;31.64;24.21
21185;BME280;18176;49.502;11.754;2023-07-13T10:55:58;97059.50;;;30.76;24.78
21185;BME280;18176;49.502;11.754;2023-07-13T11:00:17;97059.94;;;31.12;24.22
21185;BME280;18176;49.502;11.754;2023-07-13T11:04:20;97057.69;;;30.83;25.03
21185;BME280;18176;49.502;11.754;2023-07-13T11:08:35;97032.38;;;32.80;23.22
21185;BME280;18176;49.502;11.754;2023-07-13T11:12:52;97038.31;;;31.87;23.04
21185;BME280;18176;49.502;11.754;2023-07-13T11:16:53;97022.69;;;32.11;22.38
21185;BME280;18176;49.502;11.754;2023-07-13T11:21:15;97042.41;;;31.55;23.37
21185;BME280;18176;49.502;11.754;2023-07-13T11:25:31;97039.88;;;30.89;23.90
21185;BME280;18176;49.502;11.754;2023-07-13T11:29:38;97059.16;;;30.15;24.72
21185;BME280;18176;49.502;11.754;2023-07-13T11:33:59;97046.81;;;31.02;23.16
21185;BME280;18176;49.502;11.754;2023-07-13T11:38:02;97049.66;;;32.31;22.45
21185;BME280;18176;49.502;11.754;2023-07-13T11:42:11;97034.03;;;32.35;23.14
21185;BME280;18176;49.502;11.754;2023-07-13T11:46:14;97052.94;;;31.95;22.46
21185;BME280;18176;49.502;11.754;2023-07-13T11:50:20;97051.28;;;31.30;24.10
21185;BME280;18176;49.502;11.754;2023-07-13T11:54:26;97045.97;;;31.78;22.96
21185;BME280;18176;49.502;11.754;2023-07-13T11:58:30;97038.75;;;30.75;23.85
21185;BME280;18176;49.502;11.754;2023-07-13T12:02:36;97031.91;;;31.19;22.97
21185;BME280;18176;49.502;11.754;2023-07-13T12:06:38;97040.66;;;30.55;25.00
21185;BME280;18176;49.502;11.754;2023-07-13T12:10:40;97021.84;;;30.53;25.21
21185;BME280;18176;49.502;11.754;2023-07-13T12:14:51;97055.50;;;32.52;22.60
21185;BME280;18176;49.502;11.754;2023-07-13T12:18:53;97022.63;;;32.07;22.98
21185;BME280;18176;49.502;11.754;2023-07-13T12:22:55;97041.16;;;32.40;23.54
21185;BME280;18176;49.502;11.754;2023-07-13T12:27:01;97031.97;;;31.03;23.91
21185;BME280;18176;49.502;11.754;2023-07-13T12:31:08;97040.19;;;31.03;24.39
21185;BME280;18176;49.502;11.754;2023-07-13T12:35:20;97046.22;;;31.32;23.53
21185;BME280;18176;49.502;11.754;2023-07-13T12:39:23;97036.59;;;30.49;24.53
21185;BME280;18176;49.502;11.754;2023-07-13T12:43:26;97037.81;;;31.82;23.29
21185;BME280;18176;49.502;11.754;2023-07-13T12:47:30;97046.53;;;33.41;22.32
21185;BME280;18176;49.502;11.754;2023-07-13T12:51:31;97014.25;;;33.31;21.92
21185;BME280;18176;49.502;11.754;2023-07-13T12:55:31;97032.63;;;32.45;23.11
21185;BME280;18176;49.502;11.754;2023-07-13T12:59:40;97030.69;;;32.45;22.83
21185;BME280;18176;49.502;11.754;2023-07-13T13:03:48;97037.50;;;32.06;23.43
21185;BME280;18176;49.502;11.754;2023-07-13T13:07:50;97035.00;;;32.46;23.00
21185;BME280;18176;49.502;11.754;2023-07-13T13:11:50;97031.28;;;33.14;23.25
21185;BME280;18176;49.502;11.754;2023-07-13T13:15:51;97002.13;;;34.13;21.33
21185;BME280;18176;49.502;11.754;2023-07-13T13:19:54;97034.78;;;31.87;23.54
21185;BME280;18176;49.502;11.754;2023-07-13T13:23:54;97026.69;;;30.60;24.99
21185;BME280;18176;49.502;11.754;2023-07-13T13:27:55;97010.84;;;31.84;23.74
21185;BME280;18176;49.502;11.754;2023-07-13T13:31:56;96910.97;;;31.81;23.96
21185;BME280;18176;49.502;11.754;2023-07-13T13:36:00;97017.25;;;33.19;23.04
21185;BME280;18176;49.502;11.754;2023-07-13T13:40:00;97011.97;;;33.07;23.78
21185;BME280;18176;49.502;11.754;2023-07-13T13:44:09;97015.84;;;31.78;25.03
21185;BME280;18176;49.502;11.754;2023-07-13T13:48:16;97012.25;;;30.13;25.95
21185;BME280;18176;49.502;11.754;2023-07-13T13:52:23;97005.75;;;30.33;26.56
21185;BME280;18176;49.502;11.754;2023-07-13T13:56:24;97013.94;;;30.17;26.42
21185;BME280;18176;49.502;11.754;2023-07-13T14:00:24;97020.66;;;30.70;26.16
21185;BME280;18176;49.502;11.754;2023-07-13T14:04:24;97004.09;;;30.63;25.97
21185;BME280;18176;49.502;11.754;2023-07-13T14:08:27;97020.44;;;30.94;25.81
21185;BME280;18176;49.502;11.754;2023-07-13T14:12:29;97012.69;;;29.40;27.49
21185;BME280;18176;49.502;11.754;2023-07-13T14:16:31;97015.56;;;29.59;27.77
21185;BME280;18176;49.502;11.754;2023-07-13T14:20:33;97011.03;;;31.34;25.57
21185;BME280;18176;49.502;11.754;2023-07-13T14:24:36;97012.75;;;32.78;24.31
21185;BME280;18176;49.502;11.754;2023-07-13T14:28:40;97000.59;;;30.82;25.62
21185;BME280;18176;49.502;11.754;2023-07-13T14:32:42;96992.34;;;33.05;24.08
21185;BME280;18176;49.502;11.754;2023-07-13T14:36:45;97014.38;;;32.30;23.86
21185;BME280;18176;49.502;11.754;2023-07-13T14:40:50;97014.72;;;32.02;24.98
21185;BME280;18176;49.502;11.754;2023-07-13T14:44:50;97016.81;;;31.89;25.07
21185;BME280;18176;49.502;11.754;2023-07-13T14:48:54;97008.63;;;33.20;24.26
21185;BME280;18176;49.502;11.754;2023-07-13T14:52:59;97012.34;;;32.76;23.82
21185;BME280;18176;49.502;11.754;2023-07-13T14:57:02;97011.94;;;33.03;24.29
21185;BME280;18176;49.502;11.754;2023-07-13T15:01:03;97016.25;;;32.48;24.57
21185;BME280;18176;49.502;11.754;2023-07-13T15:05:13;97016.09;;;32.94;24.31
21185;BME280;18176;49.502;11.754;2023-07-13T15:09:13;97006.56;;;34.82;22.81
21185;BME280;18176;49.502;11.754;2023-07-13T15:13:19;97019.06;;;33.41;23.34
21185;BME280;18176;49.502;11.754;2023-07-13T15:17:28;96995.69;;;33.54;23.17
21185;BME280;18176;49.502;11.754;2023-07-13T15:21:31;97014.94;;;32.16;24.39
21185;BME280;18176;49.502;11.754;2023-07-13T15:25:33;97012.94;;;31.49;25.13
21185;BME280;18176;49.502;11.754;2023-07-13T15:29:36;97019.72;;;30.97;26.01
21185;BME280;18176;49.502;11.754;2023-07-13T15:33:40;97013.16;;;31.21;25.23
21185;BME280;18176;49.502;11.754;2023-07-13T15:37:43;97020.53;;;30.32;27.06
21185;BME280;18176;49.502;11.754;2023-07-13T15:41:45;97021.97;;;29.95;27.00
21185;BME280;18176;49.502;11.754;2023-07-13T15:45:50;97022.84;;;30.30;26.76
21185;BME280;18176;49.502;11.754;2023-07-13T15:49:50;97029.66;;;31.24;25.96
21185;BME280;18176;49.502;11.754;2023-07-13T15:53:54;97015.25;;;30.89;25.99
21185;BME280;18176;49.502;11.754;2023-07-13T15:57:55;97030.31;;;30.83;26.16
21185;BME280;18176;49.502;11.754;2023-07-13T16:01:58;97017.56;;;31.26;25.19
21185;BME280;18176;49.502;11.754;2023-07-13T16:05:59;97030.03;;;31.42;24.99
21185;BME280;18176;49.502;11.754;2023-07-13T16:10:01;97029.22;;;30.69;26.04
21185;BME280;18176;49.502;11.754;2023-07-13T16:14:01;97023.31;;;31.59;24.91
21185;BME280;18176;49.502;11.754;2023-07-13T16:18:05;97031.59;;;32.04;25.03
21185;BME280;18176;49.502;11.754;2023-07-13T16:22:14;97030.44;;;32.54;24.46
21185;BME280;18176;49.502;11.754;2023-07-13T16:26:30;97033.22;;;31.86;24.41
21185;BME280;18176;49.502;11.754;2023-07-13T16:30:37;97011.06;;;32.43;24.11
21185;BME280;18176;49.502;11.754;2023-07-13T16:34:42;97030.28;;;31.98;24.79
21185;BME280;18176;49.502;11.754;2023-07-13T16:38:43;97034.97;;;31.75;25.01
21185;BME280;18176;49.502;11.754;2023-07-13T16:42:44;97039.16;;;31.69;24.89
21185;BME280;18176;49.502;11.754;2023-07-13T16:46:45;97032.25;;;31.37;24.97
21185;BME280;18176;49.502;11.754;2023-07-13T16:50:53;97036.75;;;31.45;25.91
21185;BME280;18176;49.502;11.754;2023-07-13T16:54:55;97048.84;;;30.55;26.47
21185;BME280;18176;49.502;11.754;2023-07-13T16:58:55;97038.97;;;30.85;26.04
21185;BME280;18176;49.502;11.754;2023-07-13T17:02:57;97025.16;;;31.74;25.35
21185;BME280;18176;49.502;11.754;2023-07-13T17:07:01;97034.16;;;31.52;25.11
21185;BME280;18176;49.502;11.754;2023-07-13T17:11:02;97027.91;;;31.74;25.02
21185;BME280;18176;49.502;11.754;2023-07-13T17:15:04;97049.88;;;32.45;24.64
21185;BME280;18176;49.502;11.754;2023-07-13T17:19:11;97056.78;;;32.36;24.26
21185;BME280;18176;49.502;11.754;2023-07-13T17:23:18;97055.16;;;31.09;25.73
21185;BME280;18176;49.502;11.754;2023-07-13T17:27:19;97059.97;;;30.62;26.25
21185;BME280;18176;49.502;11.754;2023-07-13T17:31:21;97057.19;;;31.32;25.34
21185;BME280;18176;49.502;11.754;2023-07-13T17:35:27;97051.34;;;29.98;26.65
21185;BME280;18176;49.502;11.754;2023-07-13T17:39:31;97071.50;;;29.93;26.85
21185;BME280;18176;49.502;11.754;2023-07-13T17:43:31;97063.59;;;30.35;26.52
21185;BME280;18176;49.502;11.754;2023-07-13T17:47:32;97057.94;;;29.97;26.34
21185;BME280;18176;49.502;11.754;2023-07-13T17:51:32;97056.94;;;29.06;27.74
21185;BME280;18176;49.502;11.754;2023-07-13T17:55:37;97074.16;;;29.34;27.54
21185;BME280;18176;49.502;11.754;2023-07-13T17:59:38;97075.13;;;29.54;27.85
21185;BME280;18176;49.502;11.754;2023-07-13T18:03:42;97078.31;;;29.71;27.80
21185;BME280;18176;49.502;11.754;2023-07-13T18:07:46;97079.59;;;29.46;28.19
21185;BME280;18176;49.502;11.754;2023-07-13T18:11:50;97081.44;;;29.42;28.64
21185;BME280;18176;49.502;11.754;2023-07-13T18:15:50;97088.34;;;28.88;29.39
21185;BME280;18176;49.502;11.754;2023-07-13T18:19:51;97064.44;;;27.76;29.90
21185;BME280;18176;49.502;11.754;2023-07-13T18:23:53;97080.44;;;27.90;30.28
21185;BME280;18176;49.502;11.754;2023-07-13T18:27:57;97086.16;;;27.97;30.75
21185;BME280;18176;49.502;11.754;2023-07-13T18:31:57;97075.38;;;27.55;30.67
21185;BME280;18176;49.502;11.754;2023-07-13T18:36:04;97088.78;;;27.60;31.02
21185;BME280;18176;49.502;11.754;2023-07-13T18:40:13;97084.66;;;27.34;31.43
21185;BME280;18176;49.502;11.754;2023-07-13T18:44:17;97082.81;;;26.84;32.00
21185;BME280;18176;49.502;11.754;2023-07-13T18:48:24;97088.75;;;26.78;32.35
21185;BME280;18176;49.502;11.754;2023-07-13T18:52:28;97093.59;;;26.72;32.57
21185;BME280;18176;49.502;11.754;2023-07-13T18:56:28;97106.09;;;26.65;33.69
21185;BME280;18176;49.502;11.754;2023-07-13T19:00:32;97106.63;;;26.58;34.40
21185;BME280;18176;49.502;11.754;2023-07-13T19:04:33;97113.50;;;26.18;35.14
21185;BME280;18176;49.502;11.754;2023-07-13T19:08:33;97126.97;;;25.89;35.90
21185;BME280;18176;49.502;11.754;2023-07-13T19:12:34;97124.66;;;25.53;36.56
21185;BME280;18176;49.502;11.754;2023-07-13T19:16:39;97105.97;;;25.17;37.23
21185;BME280;18176;49.502;11.754;2023-07-13T19:20:41;97126.19;;;24.94;38.11
21185;BME280;18176;49.502;11.754;2023-07-13T20:35:01;97235.41;;;20.05;52.62
21185;BME280;18176;49.502;11.754;2023-07-13T20:39:02;97240.00;;;20.39;52.32
21185;BME280;18176;49.502;11.754;2023-07-13T20:43:03;97242.50;;;20.54;52.01
21185;BME280;18176;49.502;11.754;2023-07-13T20:47:03;97249.41;;;20.65;50.99
21185;BME280;18176;49.502;11.754;2023-07-13T20:51:10;97242.97;;;20.61;51.12
21185;BME280;18176;49.502;11.754;2023-07-13T20:55:14;97258.97;;;20.52;51.20
21185;BME280;18176;49.502;11.754;2023-07-13T20:59:16;97210.66;;;20.08;51.45
21185;BME280;18176;49.502;11.754;2023-07-13T21:03:21;97255.78;;;20.16;51.56
21185;BME280;18176;49.502;11.754;2023-07-13T21:07:24;97256.00;;;20.20;51.89
21185;BME280;18176;49.502;11.754;2023-07-13T21:11:26;97238.47;;;19.94;51.86
21185;BME280;18176;49.502;11.754;2023-07-13T21:15:31;97262.41;;;19.95;52.10
21185;BME280;18176;49.502;11.754;2023-07-13T21:19:32;97271.38;;;19.86;52.07
21185;BME280;18176;49.502;11.754;2023-07-13T21:23:36;97270.34;;;19.77;53.21
21185;BME280;18176;49.502;11.754;2023-07-13T21:27:36;97266.88;;;19.71;52.92
21185;BME280;18176;49.502;11.754;2023-07-13T21:31:37;97260.59;;;19.52;53.47
21185;BME280;18176;49.502;11.754;2023-07-13T21:35:40;97268.66;;;19.47;53.96
21185;BME280;18176;49.502;11.754;2023-07-13T21:39:45;97278.91;;;19.35;54.62
21185;BME280;18176;49.502;11.754;2023-07-13T21:43:48;97278.16;;;19.24;56.04
21185;BME280;18176;49.502;11.754;2023-07-13T21:47:50;97285.22;;;19.10;55.84
21185;BME280;18176;49.502;11.754;2023-07-13T21:51:50;97284.94;;;19.07;56.17
21185;BME280;18176;49.502;11.754;2023-07-13T21:55:57;97273.19;;;18.92;56.52
21185;BME280;18176;49.502;11.754;2023-07-13T21:59:58;97264.09;;;18.83;57.20
21185;BME280;18176;49.502;11.754;2023-07-13T22:04:13;97286.59;;;18.98;57.84
21185;BME280;18176;49.502;11.754;2023-07-13T22:08:16;97279.13;;;18.79;57.96
21185;BME280;18176;49.502;11.754;2023-07-13T22:12:19;97291.00;;;18.68;59.23
21185;BME280;18176;49.502;11.754;2023-07-13T22:16:23;97289.41;;;18.62;59.80
21185;BME280;18176;49.502;11.754;2023-07-13T22:20:24;97237.13;;;18.19;59.92
21185;BME280;18176;49.502;11.754;2023-07-13T22:24:25;97286.97;;;18.41;60.09